sensor_id;sensor_type;location;lat;lon;timestamp;temperature;humidity
15113;DHT22;7657;50.140;7.076;2024-01-15T00:02:13;-2.60;99.90
15113;DHT22;7657;50.140;7.076;2024-01-15T00:04:40;-2.50;99.90
15113;DHT22;7657;50.140;7.076;2024-01-15T00:07:07;-2.60;99.90
15113;DHT22;7657;50.140;7.076;2024-01-15T00:09:35;-2.60;99.90
15113;DHT22;7657;50.140;7.076;2024-01-15T00:12:03;-2.60;99.90
15113;DHT22;7657;50.140;7.076;2024-01-15T00:14:30;-2.60;99.90
15113;DHT22;7657;50.140;7.076;2024-01-15T00:16:58;-2.60;99.90
15113;DHT22;7657;50.140;7.076;2024-01-15T00:19:25;-2.50;99.90
15113;DHT22;7657;50.140;7.076;2024-01-15T00:21:52;-2.50;99.90
15113;DHT22;7657;50.140;7.076;2024-01-15T00:24:19;-2.30;99.90
15113;DHT22;7657;50.140;7.076;2024-01-15T00:26:46;-2.60;99.90
15113;DHT22;7657;50.140;7.076;2024-01-15T00:29:13;-2.60;99.90
15113;DHT22;7657;50.140;7.076;2024-01-15T00:31:40;-2.60;99.90
15113;DHT22;7657;50.140;7.076;2024-01-15T00:34:08;-2.50;99.90
15113;DHT22;7657;50.140;7.076;2024-01-15T00:36:35;-2.50;99.90
15113;DHT22;7657;50.140;7.076;2024-01-15T00:39:02;-2.60;99.90
15113;DHT22;7657;50.140;7.076;2024-01-15T00:41:30;-2.60;99.90
15113;DHT22;7657;50.140;7.076;2024-01-15T00:43:57;-2.70;99.90
15113;DHT22;7657;50.140;7.076;2024-01-15T00:46:24;-2.90;99.90
15113;DHT22;7657;50.140;7.076;2024-01-15T00:48:51;-2.80;99.90
15113;DHT22;7657;50.140;7.076;2024-01-15T00:51:19;-2.80;99.90
15113;DHT22;7657;50.140;7.076;2024-01-15T00:53:46;-2.80;99.90
15113;DHT22;7657;50.140;7.076;2024-01-15T00:56:13;-2.80;99.90
15113;DHT22;7657;50.140;7.076;2024-01-15T00:58:40;-2.80;99.90
15113;DHT22;7657;50.140;7.076;2024-01-15T01:01:07;-2.90;99.90
15113;DHT22;7657;50.140;7.076;2024-01-15T01:03:34;-2.80;99.90
15113;DHT22;7657;50.140;7.076;2024-01-15T01:06:01;-2.80;99.90
15113;DHT22;7657;50.140;7.076;2024-01-15T01:08:29;-2.80;99.90
15113;DHT22;7657;50.140;7.076;2024-01-15T01:10:56;-2.90;99.90
15113;DHT22;7657;50.140;7.076;2024-01-15T01:13:23;-2.90;99.90
15113;DHT22;7657;50.140;7.076;2024-01-15T01:15:50;-2.90;99.90
15113;DHT22;7657;50.140;7.076;2024-01-15T01:18:17;-3.00;99.90
15113;DHT22;7657;50.140;7.076;2024-01-15T01:20:44;-3.00;99.90
15113;DHT22;7657;50.140;7.076;2024-01-15T01:23:10;-2.90;99.90
15113;DHT22;7657;50.140;7.076;2024-01-15T01:25:39;-2.90;99.90
15113;DHT22;7657;50.140;7.076;2024-01-15T01:28:06;-2.80;99.90
15113;DHT22;7657;50.140;7.076;2024-01-15T01:30:32;-2.80;99.90
15113;DHT22;7657;50.140;7.076;2024-01-15T01:32:59;-2.80;99.90
15113;DHT22;7657;50.140;7.076;2024-01-15T01:35:26;-2.80;99.90
15113;DHT22;7657;50.140;7.076;2024-01-15T01:37:53;-2.80;99.90
15113;DHT22;7657;50.140;7.076;2024-01-15T01:40:20;-2.80;99.90
15113;DHT22;7657;50.140;7.076;2024-01-15T01:42:48;-2.70;99.90
15113;DHT22;7657;50.140;7.076;2024-01-15T01:45:15;-2.80;99.90
15113;DHT22;7657;50.140;7.076;2024-01-15T01:47:42;-2.80;99.90
15113;DHT22;7657;50.140;7.076;2024-01-15T01:50:09;-2.70;99.90
15113;DHT22;7657;50.140;7.076;2024-01-15T01:52:37;-2.70;99.90
15113;DHT22;7657;50.140;7.076;2024-01-15T01:55:06;-2.80;99.90
15113;DHT22;7657;50.140;7.076;2024-01-15T01:57:34;-2.90;99.90
15113;DHT22;7657;50.140;7.076;2024-01-15T02:00:04;-2.80;99.90
15113;DHT22;7657;50.140;7.076;2024-01-15T02:02:32;-2.80;99.90
15113;DHT22;7657;50.140;7.076;2024-01-15T02:05:00;-2.80;99.90
15113;DHT22;7657;50.140;7.076;2024-01-15T02:07:27;-2.80;99.90
15113;DHT22;7657;50.140;7.076;2024-01-15T02:09:54;-2.70;99.90
15113;DHT22;7657;50.140;7.076;2024-01-15T02:12:21;-2.60;99.90
15113;DHT22;7657;50.140;7.076;2024-01-15T02:14:48;-2.40;99.90
15113;DHT22;7657;50.140;7.076;2024-01-15T02:17:16;-2.40;99.90
15113;DHT22;7657;50.140;7.076;2024-01-15T02:19:43;-2.30;99.90
15113;DHT22;7657;50.140;7.076;2024-01-15T02:22:10;-2.30;99.90
15113;DHT22;7657;50.140;7.076;2024-01-15T02:24:38;-2.40;99.90
15113;DHT22;7657;50.140;7.076;2024-01-15T02:27:05;-2.30;99.90
15113;DHT22;7657;50.140;7.076;2024-01-15T02:29:32;-2.30;99.90
15113;DHT22;7657;50.140;7.076;2024-01-15T02:31:59;-2.30;99.90
15113;DHT22;7657;50.140;7.076;2024-01-15T02:34:31;-2.20;99.90
15113;DHT22;7657;50.140;7.076;2024-01-15T02:36:58;-2.20;99.90
15113;DHT22;7657;50.140;7.076;2024-01-15T02:39:25;-2.20;99.90
15113;DHT22;7657;50.140;7.076;2024-01-15T02:41:53;-2.20;99.90
15113;DHT22;7657;50.140;7.076;2024-01-15T02:44:21;-2.10;99.90
15113;DHT22;7657;50.140;7.076;2024-01-15T02:46:48;-2.20;99.90
15113;DHT22;7657;50.140;7.076;2024-01-15T02:49:15;-2.30;99.90
15113;DHT22;7657;50.140;7.076;2024-01-15T02:51:42;-2.40;99.90
15113;DHT22;7657;50.140;7.076;2024-01-15T02:54:09;-2.30;99.90
15113;DHT22;7657;50.140;7.076;2024-01-15T02:56:36;-2.40;99.90
15113;DHT22;7657;50.140;7.076;2024-01-15T02:59:04;-2.40;99.90
15113;DHT22;7657;50.140;7.076;2024-01-15T03:01:31;-2.20;99.90
15113;DHT22;7657;50.140;7.076;2024-01-15T03:03:58;-2.20;99.90
15113;DHT22;7657;50.140;7.076;2024-01-15T03:06:25;-2.20;99.90
15113;DHT22;7657;50.140;7.076;2024-01-15T03:08:52;-2.20;99.90
15113;DHT22;7657;50.140;7.076;2024-01-15T03:11:19;-2.20;99.90
15113;DHT22;7657;50.140;7.076;2024-01-15T03:13:45;-2.30;99.90
15113;DHT22;7657;50.140;7.076;2024-01-15T03:16:14;-2.30;99.90
15113;DHT22;7657;50.140;7.076;2024-01-15T03:18:41;-2.30;99.90
15113;DHT22;7657;50.140;7.076;2024-01-15T03:21:07;-2.30;99.90
15113;DHT22;7657;50.140;7.076;2024-01-15T03:23:34;-2.30;99.90
15113;DHT22;7657;50.140;7.076;2024-01-15T03:26:01;-2.30;99.90
15113;DHT22;7657;50.140;7.076;2024-01-15T03:28:28;-2.30;99.90
15113;DHT22;7657;50.140;7.076;2024-01-15T03:30:56;-2.20;99.90
15113;DHT22;7657;50.140;7.076;2024-01-15T03:33:24;-2.20;99.90
15113;DHT22;7657;50.140;7.076;2024-01-15T03:35:51;-2.30;99.90
15113;DHT22;7657;50.140;7.076;2024-01-15T03:38:17;-2.30;99.90
15113;DHT22;7657;50.140;7.076;2024-01-15T03:40:44;-2.20;99.90
15113;DHT22;7657;50.140;7.076;2024-01-15T03:43:12;-2.20;99.90
15113;DHT22;7657;50.140;7.076;2024-01-15T03:45:39;-2.10;99.90
15113;DHT22;7657;50.140;7.076;2024-01-15T03:48:06;-2.20;99.90
15113;DHT22;7657;50.140;7.076;2024-01-15T03:50:34;-2.20;99.90
15113;DHT22;7657;50.140;7.076;2024-01-15T03:53:01;-2.10;99.90
15113;DHT22;7657;50.140;7.076;2024-01-15T03:55:28;-2.10;99.90
15113;DHT22;7657;50.140;7.076;2024-01-15T03:57:55;-2.10;99.90
15113;DHT22;7657;50.140;7.076;2024-01-15T04:00:22;-2.20;99.90
15113;DHT22;7657;50.140;7.076;2024-01-15T04:02:49;-2.20;99.90
15113;DHT22;7657;50.140;7.076;2024-01-15T04:05:16;-2.20;99.90
15113;DHT22;7657;50.140;7.076;2024-01-15T04:07:44;-2.10;99.90
15113;DHT22;7657;50.140;7.076;2024-01-15T04:10:11;-2.20;99.90
15113;DHT22;7657;50.140;7.076;2024-01-15T04:12:38;-2.20;99.90
15113;DHT22;7657;50.140;7.076;2024-01-15T04:15:05;-2.10;99.90
15113;DHT22;7657;50.140;7.076;2024-01-15T04:17:32;-2.00;99.90
15113;DHT22;7657;50.140;7.076;2024-01-15T04:19:59;-2.10;99.90
15113;DHT22;7657;50.140;7.076;2024-01-15T04:22:27;-2.10;99.90
15113;DHT22;7657;50.140;7.076;2024-01-15T04:24:55;-2.10;99.90
15113;DHT22;7657;50.140;7.076;2024-01-15T04:27:22;-2.20;99.90
15113;DHT22;7657;50.140;7.076;2024-01-15T04:29:49;-2.20;99.90
15113;DHT22;7657;50.140;7.076;2024-01-15T04:32:16;-2.10;99.90
15113;DHT22;7657;50.140;7.076;2024-01-15T04:34:43;-2.00;99.90
15113;DHT22;7657;50.140;7.076;2024-01-15T04:37:10;-1.90;99.90
15113;DHT22;7657;50.140;7.076;2024-01-15T04:39:37;-1.90;99.90
15113;DHT22;7657;50.140;7.076;2024-01-15T04:42:05;-1.90;99.90
15113;DHT22;7657;50.140;7.076;2024-01-15T04:44:32;-1.80;99.90
15113;DHT22;7657;50.140;7.076;2024-01-15T04:46:59;-1.90;99.90
15113;DHT22;7657;50.140;7.076;2024-01-15T04:49:26;-1.80;99.90
15113;DHT22;7657;50.140;7.076;2024-01-15T04:51:54;-1.80;99.90
15113;DHT22;7657;50.140;7.076;2024-01-15T04:54:22;-1.70;99.90
15113;DHT22;7657;50.140;7.076;2024-01-15T04:56:48;-1.70;99.90
15113;DHT22;7657;50.140;7.076;2024-01-15T04:59:17;-1.70;99.90
15113;DHT22;7657;50.140;7.076;2024-01-15T05:01:43;-1.60;99.90
15113;DHT22;7657;50.140;7.076;2024-01-15T05:04:10;-1.60;99.90
15113;DHT22;7657;50.140;7.076;2024-01-15T05:06:37;-1.70;99.90
15113;DHT22;7657;50.140;7.076;2024-01-15T05:09:04;-1.70;99.90
15113;DHT22;7657;50.140;7.076;2024-01-15T05:11:31;-1.80;99.90
15113;DHT22;7657;50.140;7.076;2024-01-15T05:13:58;-1.70;99.90
15113;DHT22;7657;50.140;7.076;2024-01-15T05:16:26;-1.70;99.90
15113;DHT22;7657;50.140;7.076;2024-01-15T05:18:53;-1.80;99.90
15113;DHT22;7657;50.140;7.076;2024-01-15T05:21:20;-1.80;99.90
15113;DHT22;7657;50.140;7.076;2024-01-15T05:23:47;-1.70;99.90
15113;DHT22;7657;50.140;7.076;2024-01-15T05:26:14;-1.70;99.90
15113;DHT22;7657;50.140;7.076;2024-01-15T05:28:41;-1.70;99.90
15113;DHT22;7657;50.140;7.076;2024-01-15T05:31:08;-1.80;99.90
15113;DHT22;7657;50.140;7.076;2024-01-15T05:33:37;-1.90;99.90
15113;DHT22;7657;50.140;7.076;2024-01-15T05:36:06;-1.90;99.90
15113;DHT22;7657;50.140;7.076;2024-01-15T05:38:33;-1.90;99.90
15113;DHT22;7657;50.140;7.076;2024-01-15T05:41:00;-1.80;99.90
15113;DHT22;7657;50.140;7.076;2024-01-15T05:43:27;-1.80;99.90
15113;DHT22;7657;50.140;7.076;2024-01-15T05:45:53;-1.80;99.90
15113;DHT22;7657;50.140;7.076;2024-01-15T05:48:20;-1.80;99.90
15113;DHT22;7657;50.140;7.076;2024-01-15T05:50:48;-1.80;99.90
15113;DHT22;7657;50.140;7.076;2024-01-15T05:53:15;-1.70;99.90
15113;DHT22;7657;50.140;7.076;2024-01-15T05:55:42;-1.80;99.90
15113;DHT22;7657;50.140;7.076;2024-01-15T05:58:09;-1.70;99.90
15113;DHT22;7657;50.140;7.076;2024-01-15T06:00:36;-1.70;99.90
15113;DHT22;7657;50.140;7.076;2024-01-15T06:03:04;-1.70;99.90
15113;DHT22;7657;50.140;7.076;2024-01-15T06:05:31;-1.60;99.90
15113;DHT22;7657;50.140;7.076;2024-01-15T06:07:59;-1.60;99.90
15113;DHT22;7657;50.140;7.076;2024-01-15T06:10:26;-1.60;99.90
15113;DHT22;7657;50.140;7.076;2024-01-15T06:12:53;-1.60;99.90
15113;DHT22;7657;50.140;7.076;2024-01-15T06:15:20;-1.60;99.90
15113;DHT22;7657;50.140;7.076;2024-01-15T06:17:46;-1.60;99.90
15113;DHT22;7657;50.140;7.076;2024-01-15T06:20:13;-1.40;99.90
15113;DHT22;7657;50.140;7.076;2024-01-15T06:22:40;-1.50;99.90
15113;DHT22;7657;50.140;7.076;2024-01-15T06:25:09;-1.50;99.90
15113;DHT22;7657;50.140;7.076;2024-01-15T06:27:36;-1.50;99.90
15113;DHT22;7657;50.140;7.076;2024-01-15T06:30:03;-1.40;99.90
15113;DHT22;7657;50.140;7.076;2024-01-15T06:32:30;-1.50;99.90
15113;DHT22;7657;50.140;7.076;2024-01-15T06:34:57;-1.40;99.90
15113;DHT22;7657;50.140;7.076;2024-01-15T06:37:24;-1.40;99.90
15113;DHT22;7657;50.140;7.076;2024-01-15T06:39:51;-1.40;99.90
15113;DHT22;7657;50.140;7.076;2024-01-15T06:42:19;-1.30;99.90
15113;DHT22;7657;50.140;7.076;2024-01-15T06:44:47;-1.30;99.90
15113;DHT22;7657;50.140;7.076;2024-01-15T06:47:14;-1.30;99.90
15113;DHT22;7657;50.140;7.076;2024-01-15T06:49:42;-1.20;99.90
15113;DHT22;7657;50.140;7.076;2024-01-15T06:52:09;-1.20;99.90
15113;DHT22;7657;50.140;7.076;2024-01-15T06:54:37;-1.10;99.90
15113;DHT22;7657;50.140;7.076;2024-01-15T06:57:04;-1.10;99.90
15113;DHT22;7657;50.140;7.076;2024-01-15T06:59:33;-1.10;99.90
15113;DHT22;7657;50.140;7.076;2024-01-15T07:02:00;-1.20;99.90
15113;DHT22;7657;50.140;7.076;2024-01-15T07:04:28;-1.20;99.90
15113;DHT22;7657;50.140;7.076;2024-01-15T07:06:55;-1.10;99.90
15113;DHT22;7657;50.140;7.076;2024-01-15T07:09:22;-1.00;99.90
15113;DHT22;7657;50.140;7.076;2024-01-15T07:11:49;-1.00;99.90
15113;DHT22;7657;50.140;7.076;2024-01-15T07:14:16;-0.90;99.90
15113;DHT22;7657;50.140;7.076;2024-01-15T07:16:44;-0.90;99.90
15113;DHT22;7657;50.140;7.076;2024-01-15T07:19:11;-0.90;99.90
15113;DHT22;7657;50.140;7.076;2024-01-15T07:21:38;-1.00;99.90
15113;DHT22;7657;50.140;7.076;2024-01-15T07:24:08;-0.90;99.90
15113;DHT22;7657;50.140;7.076;2024-01-15T07:26:34;-0.80;99.90
15113;DHT22;7657;50.140;7.076;2024-01-15T07:29:01;-0.90;99.90
15113;DHT22;7657;50.140;7.076;2024-01-15T07:31:29;-1.10;99.90
15113;DHT22;7657;50.140;7.076;2024-01-15T07:33:57;-1.20;99.90
15113;DHT22;7657;50.140;7.076;2024-01-15T07:36:24;-1.10;99.90
15113;DHT22;7657;50.140;7.076;2024-01-15T07:38:50;-1.10;99.90
15113;DHT22;7657;50.140;7.076;2024-01-15T07:41:17;-1.10;99.90
15113;DHT22;7657;50.140;7.076;2024-01-15T07:43:44;-1.10;99.90
15113;DHT22;7657;50.140;7.076;2024-01-15T07:46:11;-1.10;99.90
15113;DHT22;7657;50.140;7.076;2024-01-15T07:48:38;-1.20;99.90
15113;DHT22;7657;50.140;7.076;2024-01-15T07:51:06;-1.20;99.90
15113;DHT22;7657;50.140;7.076;2024-01-15T07:53:33;-1.10;99.90
15113;DHT22;7657;50.140;7.076;2024-01-15T07:56:00;-1.20;99.90
15113;DHT22;7657;50.140;7.076;2024-01-15T07:58:27;-1.10;99.90
15113;DHT22;7657;50.140;7.076;2024-01-15T08:00:54;-1.00;99.90
15113;DHT22;7657;50.140;7.076;2024-01-15T08:03:21;-0.90;99.90
15113;DHT22;7657;50.140;7.076;2024-01-15T08:05:47;-0.80;99.90
15113;DHT22;7657;50.140;7.076;2024-01-15T08:08:19;-0.90;99.90
15113;DHT22;7657;50.140;7.076;2024-01-15T08:10:47;-0.80;99.90
15113;DHT22;7657;50.140;7.076;2024-01-15T08:13:13;-0.60;99.90
15113;DHT22;7657;50.140;7.076;2024-01-15T08:15:41;-0.60;99.90
15113;DHT22;7657;50.140;7.076;2024-01-15T08:18:08;-0.80;99.90
15113;DHT22;7657;50.140;7.076;2024-01-15T08:20:34;-0.80;99.90
15113;DHT22;7657;50.140;7.076;2024-01-15T08:23:02;-0.90;99.90
15113;DHT22;7657;50.140;7.076;2024-01-15T08:25:31;-0.80;99.90
15113;DHT22;7657;50.140;7.076;2024-01-15T08:27:58;-0.90;99.90
15113;DHT22;7657;50.140;7.076;2024-01-15T08:30:25;-1.00;99.90
15113;DHT22;7657;50.140;7.076;2024-01-15T08:32:53;-1.00;99.90
15113;DHT22;7657;50.140;7.076;2024-01-15T08:35:20;-1.00;99.90
15113;DHT22;7657;50.140;7.076;2024-01-15T08:37:48;-1.00;99.90
15113;DHT22;7657;50.140;7.076;2024-01-15T08:40:15;-1.20;99.90
15113;DHT22;7657;50.140;7.076;2024-01-15T08:42:43;-1.00;99.90
15113;DHT22;7657;50.140;7.076;2024-01-15T08:45:11;-1.00;99.90
15113;DHT22;7657;50.140;7.076;2024-01-15T08:47:38;-1.00;99.90
15113;DHT22;7657;50.140;7.076;2024-01-15T08:50:06;-1.00;99.90
15113;DHT22;7657;50.140;7.076;2024-01-15T08:52:36;-1.00;99.90
15113;DHT22;7657;50.140;7.076;2024-01-15T08:55:03;-1.00;99.90
15113;DHT22;7657;50.140;7.076;2024-01-15T08:57:32;-1.10;99.90
15113;DHT22;7657;50.140;7.076;2024-01-15T09:00:00;-1.10;99.90
15113;DHT22;7657;50.140;7.076;2024-01-15T09:02:29;-1.00;99.90
15113;DHT22;7657;50.140;7.076;2024-01-15T09:04:56;-1.10;99.90
15113;DHT22;7657;50.140;7.076;2024-01-15T09:07:22;-1.00;99.90
15113;DHT22;7657;50.140;7.076;2024-01-15T09:09:50;-0.80;99.90
15113;DHT22;7657;50.140;7.076;2024-01-15T09:12:17;-0.80;99.90
15113;DHT22;7657;50.140;7.076;2024-01-15T09:14:46;-0.80;99.90
15113;DHT22;7657;50.140;7.076;2024-01-15T09:17:14;-0.70;99.90
15113;DHT22;7657;50.140;7.076;2024-01-15T09:19:41;-0.70;99.90
15113;DHT22;7657;50.140;7.076;2024-01-15T09:22:08;-0.70;99.90
15113;DHT22;7657;50.140;7.076;2024-01-15T09:24:35;-0.70;99.90
15113;DHT22;7657;50.140;7.076;2024-01-15T09:27:02;-0.90;99.90
15113;DHT22;7657;50.140;7.076;2024-01-15T09:29:29;-0.80;99.90
15113;DHT22;7657;50.140;7.076;2024-01-15T09:31:56;-0.90;99.90
15113;DHT22;7657;50.140;7.076;2024-01-15T09:34:24;-0.80;99.90
15113;DHT22;7657;50.140;7.076;2024-01-15T09:36:51;-0.80;99.90
15113;DHT22;7657;50.140;7.076;2024-01-15T09:39:18;-0.80;99.90
15113;DHT22;7657;50.140;7.076;2024-01-15T09:41:45;-0.80;99.90
15113;DHT22;7657;50.140;7.076;2024-01-15T09:44:13;-0.80;99.90
15113;DHT22;7657;50.140;7.076;2024-01-15T09:46:41;-0.70;99.90
15113;DHT22;7657;50.140;7.076;2024-01-15T09:49:10;-0.70;99.90
15113;DHT22;7657;50.140;7.076;2024-01-15T09:51:39;-0.60;99.90
15113;DHT22;7657;50.140;7.076;2024-01-15T09:54:06;-0.60;99.90
15113;DHT22;7657;50.140;7.076;2024-01-15T09:56:34;-0.50;99.90
15113;DHT22;7657;50.140;7.076;2024-01-15T09:59:01;-0.40;99.90
15113;DHT22;7657;50.140;7.076;2024-01-15T10:01:31;-0.50;99.90
15113;DHT22;7657;50.140;7.076;2024-01-15T10:03:58;-0.50;99.90
15113;DHT22;7657;50.140;7.076;2024-01-15T10:06:27;-0.40;99.90
15113;DHT22;7657;50.140;7.076;2024-01-15T10:08:57;-0.40;99.90
15113;DHT22;7657;50.140;7.076;2024-01-15T10:11:25;-0.20;99.90
15113;DHT22;7657;50.140;7.076;2024-01-15T10:13:52;-0.20;99.90
15113;DHT22;7657;50.140;7.076;2024-01-15T10:16:20;-0.10;99.90
15113;DHT22;7657;50.140;7.076;2024-01-15T10:18:47;-0.10;99.90
15113;DHT22;7657;50.140;7.076;2024-01-15T10:21:14;-0.20;99.90
15113;DHT22;7657;50.140;7.076;2024-01-15T10:23:41;-0.20;99.90
15113;DHT22;7657;50.140;7.076;2024-01-15T10:26:10;-0.20;99.90
15113;DHT22;7657;50.140;7.076;2024-01-15T10:28:37;-0.20;99.90
15113;DHT22;7657;50.140;7.076;2024-01-15T10:31:05;-0.20;99.90
15113;DHT22;7657;50.140;7.076;2024-01-15T10:33:31;-0.10;99.90
15113;DHT22;7657;50.140;7.076;2024-01-15T10:36:00;-0.10;99.90
15113;DHT22;7657;50.140;7.076;2024-01-15T10:38:27;-0.20;99.90
15113;DHT22;7657;50.140;7.076;2024-01-15T10:40:54;-0.20;99.90
15113;DHT22;7657;50.140;7.076;2024-01-15T10:43:23;-0.10;99.90
15113;DHT22;7657;50.140;7.076;2024-01-15T10:45:51;0.00;99.90
15113;DHT22;7657;50.140;7.076;2024-01-15T10:48:18;-0.10;99.90
15113;DHT22;7657;50.140;7.076;2024-01-15T10:50:47;-0.20;99.90
15113;DHT22;7657;50.140;7.076;2024-01-15T10:53:15;-0.20;99.90
15113;DHT22;7657;50.140;7.076;2024-01-15T10:55:43;-0.20;99.90
15113;DHT22;7657;50.140;7.076;2024-01-15T10:58:10;-0.20;99.90
15113;DHT22;7657;50.140;7.076;2024-01-15T11:00:38;-0.10;99.90
15113;DHT22;7657;50.140;7.076;2024-01-15T11:03:06;0.10;99.90
15113;DHT22;7657;50.140;7.076;2024-01-15T11:05:34;0.20;99.90
15113;DHT22;7657;50.140;7.076;2024-01-15T11:08:05;0.30;99.90
15113;DHT22;7657;50.140;7.076;2024-01-15T11:10:43;0.30;99.90
15113;DHT22;7657;50.140;7.076;2024-01-15T11:13:14;0.20;99.90
15113;DHT22;7657;50.140;7.076;2024-01-15T11:16:03;0.30;99.90
15113;DHT22;7657;50.140;7.076;2024-01-15T11:18:31;0.40;99.90
15113;DHT22;7657;50.140;7.076;2024-01-15T11:21:25;0.40;99.90
15113;DHT22;7657;50.140;7.076;2024-01-15T11:23:54;0.40;99.90
15113;DHT22;7657;50.140;7.076;2024-01-15T11:26:30;0.60;99.90
15113;DHT22;7657;50.140;7.076;2024-01-15T11:28:58;0.40;99.90
15113;DHT22;7657;50.140;7.076;2024-01-15T11:31:28;0.50;99.90
15113;DHT22;7657;50.140;7.076;2024-01-15T11:33:55;0.40;99.90
15113;DHT22;7657;50.140;7.076;2024-01-15T11:37:01;0.30;99.90
15113;DHT22;7657;50.140;7.076;2024-01-15T11:39:40;0.30;99.90
15113;DHT22;7657;50.140;7.076;2024-01-15T11:42:08;0.30;99.90
15113;DHT22;7657;50.140;7.076;2024-01-15T11:44:37;0.40;99.90
15113;DHT22;7657;50.140;7.076;2024-01-15T11:47:06;0.50;99.90
15113;DHT22;7657;50.140;7.076;2024-01-15T11:49:58;0.50;99.90
15113;DHT22;7657;50.140;7.076;2024-01-15T11:52:25;0.70;99.90
15113;DHT22;7657;50.140;7.076;2024-01-15T11:54:58;0.70;99.90
15113;DHT22;7657;50.140;7.076;2024-01-15T11:57:45;0.70;99.90
15113;DHT22;7657;50.140;7.076;2024-01-15T12:00:13;0.70;99.90
15113;DHT22;7657;50.140;7.076;2024-01-15T12:02:42;0.70;99.90
15113;DHT22;7657;50.140;7.076;2024-01-15T12:05:09;0.70;99.90
15113;DHT22;7657;50.140;7.076;2024-01-15T12:07:38;0.80;99.90
15113;DHT22;7657;50.140;7.076;2024-01-15T12:10:08;0.80;99.90
15113;DHT22;7657;50.140;7.076;2024-01-15T12:12:44;0.90;99.90
15113;DHT22;7657;50.140;7.076;2024-01-15T12:15:14;0.80;99.90
15113;DHT22;7657;50.140;7.076;2024-01-15T12:17:43;0.70;99.90
15113;DHT22;7657;50.140;7.076;2024-01-15T12:20:11;0.70;99.90
15113;DHT22;7657;50.140;7.076;2024-01-15T12:22:38;0.70;99.90
15113;DHT22;7657;50.140;7.076;2024-01-15T12:25:05;0.80;99.90
15113;DHT22;7657;50.140;7.076;2024-01-15T12:27:33;0.80;99.90
15113;DHT22;7657;50.140;7.076;2024-01-15T12:30:00;0.90;99.90
15113;DHT22;7657;50.140;7.076;2024-01-15T12:32:27;0.90;99.90
15113;DHT22;7657;50.140;7.076;2024-01-15T12:34:55;0.90;99.90
15113;DHT22;7657;50.140;7.076;2024-01-15T12:37:22;0.90;99.90
15113;DHT22;7657;50.140;7.076;2024-01-15T12:39:52;1.00;99.90
15113;DHT22;7657;50.140;7.076;2024-01-15T12:42:21;1.10;99.90
15113;DHT22;7657;50.140;7.076;2024-01-15T12:44:48;1.10;99.90
15113;DHT22;7657;50.140;7.076;2024-01-15T12:47:15;1.20;99.90
15113;DHT22;7657;50.140;7.076;2024-01-15T12:49:46;1.20;99.90
15113;DHT22;7657;50.140;7.076;2024-01-15T12:52:18;1.30;99.90
15113;DHT22;7657;50.140;7.076;2024-01-15T12:54:45;1.40;99.90
15113;DHT22;7657;50.140;7.076;2024-01-15T12:57:12;1.50;99.90
15113;DHT22;7657;50.140;7.076;2024-01-15T12:59:39;1.50;99.90
15113;DHT22;7657;50.140;7.076;2024-01-15T13:02:06;1.50;99.90
15113;DHT22;7657;50.140;7.076;2024-01-15T13:04:33;1.40;99.90
15113;DHT22;7657;50.140;7.076;2024-01-15T13:07:00;1.50;99.90
15113;DHT22;7657;50.140;7.076;2024-01-15T13:09:29;1.70;99.90
15113;DHT22;7657;50.140;7.076;2024-01-15T13:11:56;1.70;99.90
15113;DHT22;7657;50.140;7.076;2024-01-15T13:14:23;1.70;99.90
15113;DHT22;7657;50.140;7.076;2024-01-15T13:16:50;1.80;99.90
15113;DHT22;7657;50.140;7.076;2024-01-15T13:19:18;1.60;99.90
15113;DHT22;7657;50.140;7.076;2024-01-15T13:21:44;1.60;99.90
15113;DHT22;7657;50.140;7.076;2024-01-15T13:24:11;1.50;99.90
15113;DHT22;7657;50.140;7.076;2024-01-15T13:26:41;1.50;99.90
15113;DHT22;7657;50.140;7.076;2024-01-15T13:29:07;1.50;99.90
15113;DHT22;7657;50.140;7.076;2024-01-15T13:31:34;1.40;99.90
15113;DHT22;7657;50.140;7.076;2024-01-15T13:34:02;1.50;99.90
15113;DHT22;7657;50.140;7.076;2024-01-15T13:36:29;1.60;99.90
15113;DHT22;7657;50.140;7.076;2024-01-15T13:38:56;1.30;99.90
15113;DHT22;7657;50.140;7.076;2024-01-15T13:41:24;1.00;99.90
15113;DHT22;7657;50.140;7.076;2024-01-15T13:43:54;0.90;99.90
15113;DHT22;7657;50.140;7.076;2024-01-15T13:46:24;0.90;99.90
15113;DHT22;7657;50.140;7.076;2024-01-15T13:48:52;0.90;99.90
15113;DHT22;7657;50.140;7.076;2024-01-15T13:51:21;0.90;99.90
15113;DHT22;7657;50.140;7.076;2024-01-15T13:53:48;0.90;99.90
15113;DHT22;7657;50.140;7.076;2024-01-15T13:56:16;1.00;99.90
15113;DHT22;7657;50.140;7.076;2024-01-15T13:58:43;1.10;99.90
15113;DHT22;7657;50.140;7.076;2024-01-15T14:01:11;1.10;99.90
15113;DHT22;7657;50.140;7.076;2024-01-15T14:03:38;1.10;99.90
15113;DHT22;7657;50.140;7.076;2024-01-15T14:06:05;1.00;99.90
15113;DHT22;7657;50.140;7.076;2024-01-15T14:08:34;1.00;99.90
15113;DHT22;7657;50.140;7.076;2024-01-15T14:11:01;1.10;99.90
15113;DHT22;7657;50.140;7.076;2024-01-15T14:13:28;1.10;99.90
15113;DHT22;7657;50.140;7.076;2024-01-15T14:15:55;1.20;99.90
15113;DHT22;7657;50.140;7.076;2024-01-15T14:18:23;1.20;99.90
15113;DHT22;7657;50.140;7.076;2024-01-15T14:20:50;1.10;99.90
15113;DHT22;7657;50.140;7.076;2024-01-15T14:23:19;0.80;99.90
15113;DHT22;7657;50.140;7.076;2024-01-15T14:25:46;0.90;99.90
15113;DHT22;7657;50.140;7.076;2024-01-15T14:28:12;0.80;99.90
15113;DHT22;7657;50.140;7.076;2024-01-15T14:30:39;0.90;99.90
15113;DHT22;7657;50.140;7.076;2024-01-15T14:33:06;1.00;99.90
15113;DHT22;7657;50.140;7.076;2024-01-15T14:35:35;1.00;99.90
15113;DHT22;7657;50.140;7.076;2024-01-15T14:38:02;0.90;99.90
15113;DHT22;7657;50.140;7.076;2024-01-15T14:40:29;0.90;99.90
15113;DHT22;7657;50.140;7.076;2024-01-15T14:42:56;0.90;99.90
15113;DHT22;7657;50.140;7.076;2024-01-15T14:45:23;0.90;99.90
15113;DHT22;7657;50.140;7.076;2024-01-15T14:47:52;0.90;99.90
15113;DHT22;7657;50.140;7.076;2024-01-15T14:50:19;0.90;99.90
15113;DHT22;7657;50.140;7.076;2024-01-15T14:52:47;1.00;99.90
15113;DHT22;7657;50.140;7.076;2024-01-15T14:55:14;1.00;99.90
15113;DHT22;7657;50.140;7.076;2024-01-15T14:57:41;1.00;99.90
15113;DHT22;7657;50.140;7.076;2024-01-15T15:00:09;0.90;99.90
15113;DHT22;7657;50.140;7.076;2024-01-15T15:02:37;0.90;99.90
15113;DHT22;7657;50.140;7.076;2024-01-15T15:05:05;0.80;99.90
15113;DHT22;7657;50.140;7.076;2024-01-15T15:07:32;0.80;99.90
15113;DHT22;7657;50.140;7.076;2024-01-15T15:10:01;0.80;99.90
15113;DHT22;7657;50.140;7.076;2024-01-15T15:12:28;0.70;99.90
15113;DHT22;7657;50.140;7.076;2024-01-15T15:14:54;0.60;99.90
15113;DHT22;7657;50.140;7.076;2024-01-15T15:17:21;0.60;99.90
15113;DHT22;7657;50.140;7.076;2024-01-15T15:19:48;0.60;99.90
15113;DHT22;7657;50.140;7.076;2024-01-15T15:22:18;0.70;99.90
15113;DHT22;7657;50.140;7.076;2024-01-15T15:24:45;0.70;99.90
15113;DHT22;7657;50.140;7.076;2024-01-15T15:27:13;0.80;99.90
15113;DHT22;7657;50.140;7.076;2024-01-15T15:29:40;0.70;99.90
15113;DHT22;7657;50.140;7.076;2024-01-15T15:32:07;0.50;99.90
15113;DHT22;7657;50.140;7.076;2024-01-15T15:34:33;0.50;99.90
15113;DHT22;7657;50.140;7.076;2024-01-15T15:37:00;0.60;99.90
15113;DHT22;7657;50.140;7.076;2024-01-15T15:39:27;0.50;99.90
15113;DHT22;7657;50.140;7.076;2024-01-15T15:41:56;0.40;99.90
15113;DHT22;7657;50.140;7.076;2024-01-15T15:44:24;0.50;99.90
15113;DHT22;7657;50.140;7.076;2024-01-15T15:46:51;0.50;99.90
15113;DHT22;7657;50.140;7.076;2024-01-15T15:49:18;0.50;99.90
15113;DHT22;7657;50.140;7.076;2024-01-15T15:51:45;0.50;99.90
15113;DHT22;7657;50.140;7.076;2024-01-15T15:54:13;0.50;99.90